Time;durP1;ratioP1;P1;durP2;ratioP2;P2;SDS_P1;SDS_P2;PMS_P1;PMS_P2;Temp;Humidity;BMP_temperature;BMP_pressure;BME280_temperature;BME280_humidity;BME280_pressure;Samples;Min_cycle;Max_cycle;Signal;HPM_P1;HPM_P2
2022/05/06 00:00:56;;;;;;;12.13;8.10;;;;;;;;;;4126864;84;28528;-86
2022/05/06 00:06:57;;;;;;;12.50;7.35;;;;;;;;;;4126617;86;28546;-86
2022/05/06 00:12:58;;;;;;;12.13;8.08;;;;;;;;;;4124114;84;28558;-86
2022/05/06 00:18:59;;;;;;;10.15;7.92;;;;;;;;;;4111943;84;28467;-87
2022/05/06 00:25:00;;;;;;;10.90;7.75;;;;;;;;;;4124233;84;28533;-84
2022/05/06 00:31:02;;;;;;;11.25;8.08;;;;;;;;;;4117529;84;28636;-85
2022/05/06 00:37:03;;;;;;;10.72;7.58;;;;;;;;;;4126494;84;28526;-86
2022/05/06 00:43:04;;;;;;;13.75;8.75;;;;;;;;;;4126465;84;28495;-86
2022/05/06 00:49:09;;;;;;;11.93;8.68;;;;;;;;;;4127021;84;28592;-86
2022/05/06 00:55:11;;;;;;;13.18;9.48;;;;;;;;;;4125796;84;28605;-86
2022/05/06 01:01:11;;;;;;;11.60;8.05;;;;;;;;;;4097209;86;28558;-86
2022/05/06 01:07:13;;;;;;;12.47;8.35;;;;;;;;;;4073353;86;28603;-86
2022/05/06 01:13:15;;;;;;;11.25;8.35;;;;;;;;;;4066348;85;28547;-85
2022/05/06 01:19:16;;;;;;;12.85;10.23;;;;;;;;;;4052181;85;28510;-86
2022/05/06 01:25:17;;;;;;;12.95;9.50;;;;;;;;;;4073423;85;28505;-85
2022/05/06 01:31:20;;;;;;;11.15;8.03;;;;;;;;;;4093898;85;28574;-86
2022/05/06 01:37:22;;;;;;;13.48;8.43;;;;;;;;;;4069426;86;28535;-86
2022/05/06 01:43:24;;;;;;;12.93;8.58;;;;;;;;;;4069023;85;28500;-86
2022/05/06 01:49:25;;;;;;;13.62;9.73;;;;;;;;;;4065232;85;28480;-85
2022/05/06 01:55:26;;;;;;;12.68;9.33;;;;;;;;;;4072374;85;28637;-86
2022/05/06 02:01:32;;;;;;;10.82;8.38;;;;;;;;;;4018705;86;28552;-85
2022/05/06 02:07:32;;;;;;;10.43;7.70;;;;;;;;;;4051912;86;28589;-85
2022/05/06 02:13:34;;;;;;;13.32;9.08;;;;;;;;;;4110551;85;28561;-88
2022/05/06 02:19:54;;;;;;;12.47;8.75;;;;;;;;;;4107123;85;28498;-90
2022/05/06 02:26:05;;;;;;;11.83;8.30;;;;;;;;;;4099039;85;28507;-89
2022/05/06 02:38:28;;;;;;;8.95;6.95;;;;;;;;;;4103482;85;28561;-87
2022/05/06 02:44:37;;;;;;;11.05;7.87;;;;;;;;;;4089547;85;28588;-90
2022/05/06 02:50:38;;;;;;;11.95;8.48;;;;;;;;;;4095178;85;28507;-89
2022/05/06 02:56:40;;;;;;;10.53;8.08;;;;;;;;;;4096835;86;28543;-87
2022/05/06 03:02:42;;;;;;;11.90;8.88;;;;;;;;;;4109105;85;28539;-90
2022/05/06 03:08:44;;;;;;;12.73;8.20;;;;;;;;;;4098816;85;28569;-89
2022/05/06 03:14:47;;;;;;;12.53;8.20;;;;;;;;;;4103494;86;28537;-88
2022/05/06 03:20:49;;;;;;;13.60;7.53;;;;;;;;;;4086960;85;28501;-87
2022/05/06 03:26:50;;;;;;;14.60;8.48;;;;;;;;;;4070260;85;28561;-88
2022/05/06 03:32:51;;;;;;;13.65;7.97;;;;;;;;;;4073611;86;28531;-86
2022/05/06 03:38:53;;;;;;;12.70;7.80;;;;;;;;;;4102466;85;28498;-87
2022/05/06 03:44:55;;;;;;;13.70;8.23;;;;;;;;;;4105502;86;28538;-87
2022/05/06 03:57:17;;;;;;;14.60;8.95;;;;;;;;;;4091864;85;28530;-86
2022/05/06 04:03:19;;;;;;;13.88;8.08;;;;;;;;;;4150257;84;28530;-88
2022/05/06 04:09:21;;;;;;;12.88;9.05;;;;;;;;;;4154971;84;28558;-87
2022/05/06 04:15:22;;;;;;;13.62;8.50;;;;;;;;;;4165502;84;28572;-87
2022/05/06 04:27:44;;;;;;;15.40;8.53;;;;;;;;;;4136444;84;28490;-87
2022/05/06 04:33:46;;;;;;;13.03;8.95;;;;;;;;;;4158025;84;28544;-89
2022/05/06 04:39:52;;;;;;;16.33;10.33;;;;;;;;;;4128956;84;28636;-87
2022/05/06 04:45:54;;;;;;;13.45;8.85;;;;;;;;;;4150610;84;28546;-89
2022/05/06 04:51:59;;;;;;;11.08;8.80;;;;;;;;;;4136369;84;28538;-89
2022/05/06 04:58:02;;;;;;;14.58;9.28;;;;;;;;;;4127720;84;28557;-87
2022/05/06 05:04:04;;;;;;;12.60;8.48;;;;;;;;;;4099901;85;28501;-87
2022/05/06 05:10:06;;;;;;;11.93;8.73;;;;;;;;;;4078567;87;28475;-87
2022/05/06 05:16:09;;;;;;;11.22;7.85;;;;;;;;;;4083947;86;28477;-87
2022/05/06 05:22:10;;;;;;;11.83;8.55;;;;;;;;;;4070981;86;28535;-88
2022/05/06 05:28:12;;;;;;;12.07;8.30;;;;;;;;;;4100022;87;28521;-88
2022/05/06 05:34:14;;;;;;;13.78;8.65;;;;;;;;;;4072440;87;28502;-86
2022/05/06 05:40:16;;;;;;;10.70;8.30;;;;;;;;;;4083530;87;28632;-88
2022/05/06 05:52:37;;;;;;;16.20;9.80;;;;;;;;;;4090034;85;28605;-87
2022/05/06 05:58:38;;;;;;;14.25;9.75;;;;;;;;;;4107200;84;28530;-85
2022/05/06 06:04:43;;;;;;;13.68;10.35;;;;;;;;;;4123327;84;28498;-85
2022/05/06 06:10:46;;;;;;;12.20;10.03;;;;;;;;;;4133870;84;28500;-87
2022/05/06 06:16:50;;;;;;;12.95;9.68;;;;;;;;;;4106760;86;28529;-86
2022/05/06 06:22:52;;;;;;;16.48;11.83;;;;;;;;;;4131325;84;28592;-86
2022/05/06 06:28:54;;;;;;;15.48;12.33;;;;;;;;;;4148694;84;28510;-86
2022/05/06 06:34:56;;;;;;;18.52;12.88;;;;;;;;;;4148191;84;28516;-86
2022/05/06 06:40:59;;;;;;;17.48;13.48;;;;;;;;;;4132828;84;28550;-83
2022/05/06 06:47:04;;;;;;;17.45;13.30;;;;;;;;;;4145548;84;28589;-83
2022/05/06 06:53:23;;;;;;;19.02;14.40;;;;;;;;;;4149785;84;28578;-81
2022/05/06 06:59:24;;;;;;;18.85;13.68;;;;;;;;;;4113897;84;28969;-84
2022/05/06 07:05:25;;;;;;;18.75;13.10;;;;;;;;;;4106348;84;28531;-81
2022/05/06 07:17:45;;;;;;;21.10;14.83;;;;;;;;;;4117928;84;28534;-80
2022/05/06 07:23:46;;;;;;;19.82;15.58;;;;;;;;;;4018429;86;29093;-81
2022/05/06 07:29:47;;;;;;;19.75;14.98;;;;;;;;;;3967102;88;28541;-81
2022/05/06 07:35:48;;;;;;;21.90;15.78;;;;;;;;;;4029027;86;28613;-82
2022/05/06 07:41:49;;;;;;;20.17;15.10;;;;;;;;;;3995475;87;28468;-82
2022/05/06 07:47:50;;;;;;;18.62;15.10;;;;;;;;;;3984238;88;28531;-83
2022/05/06 07:53:52;;;;;;;21.80;17.25;;;;;;;;;;4049396;86;28472;-84
2022/05/06 07:59:53;;;;;;;23.20;16.85;;;;;;;;;;4045186;86;28587;-83
2022/05/06 08:05:57;;;;;;;26.42;18.17;;;;;;;;;;4064220;85;28572;-85
2022/05/06 08:11:58;;;;;;;22.65;16.30;;;;;;;;;;3977284;87;28539;-82
2022/05/06 08:17:59;;;;;;;21.77;16.02;;;;;;;;;;3955431;88;28548;-80
2022/05/06 08:24:00;;;;;;;22.30;15.78;;;;;;;;;;4010870;87;28689;-81
2022/05/06 08:30:01;;;;;;;21.57;14.38;;;;;;;;;;4053916;85;28535;-80
2022/05/06 08:36:04;;;;;;;20.95;15.60;;;;;;;;;;3989471;87;28499;-82
2022/05/06 08:42:08;;;;;;;21.97;15.95;;;;;;;;;;3985077;87;28470;-80
2022/05/06 08:54:28;;;;;;;25.27;17.07;;;;;;;;;;4013974;87;28664;-81
2022/05/06 09:00:29;;;;;;;26.68;18.12;;;;;;;;;;4021314;87;28534;-80
2022/05/06 09:06:32;;;;;;;26.85;18.35;;;;;;;;;;4026241;88;28546;-81
2022/05/06 09:12:41;;;;;;;25.52;17.70;;;;;;;;;;4032149;87;28487;-80
2022/05/06 09:18:42;;;;;;;24.98;17.40;;;;;;;;;;4014302;87;28515;-82
2022/05/06 09:24:44;;;;;;;25.82;17.20;;;;;;;;;;4010790;88;28508;-80
2022/05/06 09:31:02;;;;;;;25.15;17.77;;;;;;;;;;4049635;86;28521;-83
2022/05/06 09:37:03;;;;;;;26.60;18.52;;;;;;;;;;4047525;86;28537;-81
2022/05/06 09:43:03;;;;;;;28.83;19.00;;;;;;;;;;4049636;86;28603;-82
2022/05/06 09:49:05;;;;;;;24.80;18.60;;;;;;;;;;4049461;86;28610;-82
2022/05/06 09:55:07;;;;;;;25.60;18.70;;;;;;;;;;4026957;86;28559;-81
2022/05/06 10:01:08;;;;;;;27.22;20.35;;;;;;;;;;4070665;85;28574;-82
2022/05/06 10:07:11;;;;;;;26.20;18.42;;;;;;;;;;4130879;85;28570;-78
2022/05/06 10:13:16;;;;;;;29.75;18.77;;;;;;;;;;4117736;84;28557;-80
2022/05/06 10:19:27;;;;;;;27.10;20.13;;;;;;;;;;4022173;86;28671;-81
2022/05/06 10:25:44;;;;;;;27.93;19.48;;;;;;;;;;4073550;85;28572;-80
2022/05/06 10:38:24;;;;;;;27.60;19.67;;;;;;;;;;4140587;85;28588;-80
2022/05/06 10:44:35;;;;;;;23.62;18.15;;;;;;;;;;4091053;84;28526;-79
2022/05/06 10:50:37;;;;;;;26.05;18.50;;;;;;;;;;4118138;85;28553;-79
2022/05/06 10:56:44;;;;;;;23.73;16.75;;;;;;;;;;4084310;85;28624;-80
2022/05/06 11:02:41;;;;;;;21.30;16.93;;;;;;;;;;4102503;84;28503;-78
2022/05/06 11:08:42;;;;;;;25.60;17.87;;;;;;;;;;4125955;84;28615;-81
2022/05/06 11:14:43;;;;;;;23.07;16.73;;;;;;;;;;4116067;84;28566;-80
2022/05/06 11:20:44;;;;;;;22.60;16.02;;;;;;;;;;4128374;84;28570;-82
2022/05/06 11:26:45;;;;;;;20.68;16.05;;;;;;;;;;4128294;84;28502;-81
2022/05/06 11:32:48;;;;;;;20.65;15.98;;;;;;;;;;4121880;84;28491;-81
2022/05/06 11:38:49;;;;;;;24.43;17.82;;;;;;;;;;4128444;84;28542;-81
2022/05/06 11:51:18;;;;;;;21.95;15.60;;;;;;;;;;3958853;87;28515;-80
2022/05/06 11:57:19;;;;;;;16.23;12.65;;;;;;;;;;4101085;84;28574;-79
2022/05/06 12:03:20;;;;;;;16.15;12.63;;;;;;;;;;4112714;84;28610;-81
2022/05/06 12:09:22;;;;;;;18.10;14.15;;;;;;;;;;4093353;84;28561;-82
2022/05/06 12:15:29;;;;;;;13.93;10.55;;;;;;;;;;4307109;80;28563;-83
2022/05/06 12:21:32;;;;;;;17.90;13.65;;;;;;;;;;4281449;82;28605;-83
2022/05/06 12:27:36;;;;;;;17.55;13.58;;;;;;;;;;4287928;82;28556;-81
2022/05/06 12:33:39;;;;;;;17.95;13.62;;;;;;;;;;4224508;82;28552;-80
2022/05/06 12:39:44;;;;;;;17.32;12.95;;;;;;;;;;4238281;82;28525;-84
2022/05/06 12:45:52;;;;;;;19.67;14.28;;;;;;;;;;4232094;81;28508;-84
2022/05/06 12:51:53;;;;;;;20.95;14.87;;;;;;;;;;4250345;82;28562;-82
2022/05/06 12:57:54;;;;;;;18.90;14.65;;;;;;;;;;4238112;82;28619;-83
2022/05/06 13:03:55;;;;;;;23.38;16.35;;;;;;;;;;4255839;82;28538;-85
2022/05/06 13:09:56;;;;;;;22.05;15.75;;;;;;;;;;4257756;81;28559;-83
2022/05/06 13:15:59;;;;;;;21.85;15.63;;;;;;;;;;4349682;79;28500;-83
2022/05/06 13:21:59;;;;;;;19.67;15.25;;;;;;;;;;4363904;79;28541;-83
2022/05/06 13:28:00;;;;;;;19.80;14.45;;;;;;;;;;4354933;80;28521;-85
2022/05/06 13:34:01;;;;;;;20.37;14.40;;;;;;;;;;4384894;79;28559;-81
2022/05/06 13:40:02;;;;;;;20.10;14.65;;;;;;;;;;4341554;79;28548;-82
2022/05/06 13:46:04;;;;;;;20.80;15.40;;;;;;;;;;4376115;79;28541;-80
2022/05/06 13:52:05;;;;;;;17.57;13.35;;;;;;;;;;4343633;79;29099;-82
2022/05/06 14:04:26;;;;;;;18.55;13.90;;;;;;;;;;4341966;79;28539;-81
2022/05/06 14:10:28;;;;;;;18.15;13.00;;;;;;;;;;4369067;79;29227;-80
2022/05/06 14:16:34;;;;;;;18.20;13.75;;;;;;;;;;4330117;79;28570;-81
2022/05/06 14:22:37;;;;;;;19.55;14.53;;;;;;;;;;4313724;80;28494;-85
2022/05/06 14:28:38;;;;;;;19.00;13.70;;;;;;;;;;4333488;80;28559;-83
2022/05/06 14:34:41;;;;;;;19.30;13.40;;;;;;;;;;4348989;79;28547;-83
2022/05/06 14:40:59;;;;;;;18.23;14.00;;;;;;;;;;4332767;79;28513;-82
2022/05/06 14:47:01;;;;;;;20.57;13.22;;;;;;;;;;4313440;80;28464;-82
2022/05/06 14:53:03;;;;;;;15.13;11.70;;;;;;;;;;4325901;79;28486;-78
2022/05/06 14:59:03;;;;;;;16.65;11.18;;;;;;;;;;4344428;80;28634;-79
2022/05/06 15:05:05;;;;;;;15.83;11.33;;;;;;;;;;4317091;79;28602;-79
2022/05/06 15:11:08;;;;;;;15.72;10.53;;;;;;;;;;4323997;79;28537;-80
2022/05/06 15:17:15;;;;;;;13.35;10.40;;;;;;;;;;4337594;79;28545;-79
2022/05/06 15:23:14;;;;;;;16.95;12.98;;;;;;;;;;4337559;79;28535;-80
2022/05/06 15:29:15;;;;;;;16.32;12.00;;;;;;;;;;4345023;80;28547;-80
2022/05/06 15:35:16;;;;;;;18.27;13.80;;;;;;;;;;4349709;80;28589;-80
2022/05/06 15:41:16;;;;;;;20.82;14.60;;;;;;;;;;4332846;79;28516;-80
2022/05/06 15:47:17;;;;;;;23.38;16.17;;;;;;;;;;4336645;79;28529;-79
2022/05/06 15:53:18;;;;;;;24.07;16.02;;;;;;;;;;4318973;79;28521;-80
2022/05/06 15:59:19;;;;;;;22.80;17.00;;;;;;;;;;4322226;79;28558;-80
2022/05/06 16:05:21;;;;;;;23.90;17.25;;;;;;;;;;4307753;80;28558;-79
2022/05/06 16:11:22;;;;;;;26.37;18.65;;;;;;;;;;4358964;79;28518;-79
2022/05/06 16:17:23;;;;;;;27.80;20.15;;;;;;;;;;4347734;80;28533;-80
2022/05/06 16:23:24;;;;;;;26.55;18.35;;;;;;;;;;4314285;81;28493;-79
2022/05/06 16:29:25;;;;;;;25.92;18.82;;;;;;;;;;4295732;81;28461;-79
2022/05/06 16:41:45;;;;;;;26.77;19.80;;;;;;;;;;4327325;80;28556;-80
2022/05/06 16:47:46;;;;;;;27.30;20.05;;;;;;;;;;4317128;80;28517;-80
2022/05/06 16:53:47;;;;;;;33.23;21.80;;;;;;;;;;4310424;80;28548;-80
2022/05/06 16:59:48;;;;;;;32.53;21.82;;;;;;;;;;4335000;80;28552;-84
2022/05/06 17:05:50;;;;;;;31.65;22.37;;;;;;;;;;4317392;80;28554;-80
2022/05/06 17:11:51;;;;;;;32.23;22.82;;;;;;;;;;4339643;80;28573;-79
2022/05/06 17:17:52;;;;;;;33.13;22.52;;;;;;;;;;4342914;80;28498;-82
2022/05/06 17:23:53;;;;;;;32.30;22.30;;;;;;;;;;4344500;79;28548;-79
2022/05/06 17:29:59;;;;;;;33.10;22.35;;;;;;;;;;4345883;79;28503;-79
2022/05/06 17:35:59;;;;;;;35.83;22.87;;;;;;;;;;4351051;79;28509;-78
2022/05/06 17:42:00;;;;;;;34.75;22.15;;;;;;;;;;4335254;79;28584;-80
2022/05/06 17:48:01;;;;;;;37.20;23.02;;;;;;;;;;4332854;79;28516;-79
2022/05/06 17:54:03;;;;;;;33.20;22.93;;;;;;;;;;4339751;80;28655;-78
2022/05/06 18:06:24;;;;;;;31.65;21.42;;;;;;;;;;4349089;80;28451;-80
2022/05/06 18:12:26;;;;;;;29.77;19.55;;;;;;;;;;4355967;79;28528;-80
2022/05/06 18:18:28;;;;;;;25.90;19.67;;;;;;;;;;4368158;79;28506;-79
2022/05/06 18:24:29;;;;;;;30.25;20.37;;;;;;;;;;4301428;80;28498;-78
2022/05/06 18:30:30;;;;;;;29.52;19.98;;;;;;;;;;4394616;80;28480;-81
2022/05/06 18:36:33;;;;;;;32.45;22.58;;;;;;;;;;4352547;79;28547;-85
2022/05/06 18:42:34;;;;;;;30.27;20.37;;;;;;;;;;4347756;80;28563;-85
2022/05/06 18:48:36;;;;;;;28.25;19.62;;;;;;;;;;4344973;79;28537;-85
2022/05/06 18:54:41;;;;;;;30.92;20.02;;;;;;;;;;4329916;80;28540;-86
2022/05/06 19:00:46;;;;;;;30.40;21.10;;;;;;;;;;4343389;80;28457;-86
2022/05/06 19:06:47;;;;;;;39.25;24.50;;;;;;;;;;4332230;79;28484;-85
2022/05/06 19:12:48;;;;;;;31.80;21.35;;;;;;;;;;4339323;80;28939;-83
2022/05/06 19:18:49;;;;;;;34.58;22.80;;;;;;;;;;4327889;80;28559;-86
2022/05/06 19:24:53;;;;;;;32.28;20.00;;;;;;;;;;4340845;80;28524;-87
2022/05/06 19:30:53;;;;;;;30.20;20.12;;;;;;;;;;4331991;80;28508;-86
2022/05/06 19:36:54;;;;;;;29.02;19.02;;;;;;;;;;4323051;80;28450;-87
2022/05/06 19:42:55;;;;;;;29.90;19.82;;;;;;;;;;4346255;80;28602;-85
2022/05/06 19:48:56;;;;;;;27.67;19.45;;;;;;;;;;4351898;80;28574;-83
2022/05/06 19:54:58;;;;;;;27.67;18.82;;;;;;;;;;4316499;80;28541;-86
2022/05/06 20:01:03;;;;;;;28.25;17.85;;;;;;;;;;4321153;80;28492;-86
2022/05/06 20:07:07;;;;;;;29.65;19.73;;;;;;;;;;4324136;80;28486;-84
2022/05/06 20:13:12;;;;;;;30.30;19.70;;;;;;;;;;4340269;80;28605;-85
2022/05/06 20:19:11;;;;;;;31.33;19.00;;;;;;;;;;4334636;80;28532;-85
2022/05/06 20:25:15;;;;;;;25.88;18.32;;;;;;;;;;4313796;80;28505;-85
2022/05/06 20:31:17;;;;;;;29.25;19.80;;;;;;;;;;4336300;80;28502;-84
2022/05/06 20:37:18;;;;;;;32.30;19.90;;;;;;;;;;4332945;79;28572;-84
2022/05/06 20:43:20;;;;;;;27.82;18.25;;;;;;;;;;4332607;79;28558;-87
2022/05/06 20:49:21;;;;;;;29.18;18.32;;;;;;;;;;4328583;80;28522;-86
2022/05/06 20:55:22;;;;;;;30.05;19.23;;;;;;;;;;4347386;79;28543;-87
2022/05/06 21:01:28;;;;;;;29.60;19.90;;;;;;;;;;4348030;80;28557;-87
2022/05/06 21:07:29;;;;;;;32.10;20.80;;;;;;;;;;4329914;80;29185;-86
2022/05/06 21:13:30;;;;;;;32.10;20.23;;;;;;;;;;4332069;79;28504;-86
2022/05/06 21:19:34;;;;;;;29.75;19.52;;;;;;;;;;4319854;79;28514;-86
2022/05/06 21:25:41;;;;;;;28.10;18.73;;;;;;;;;;4306410;79;28509;-87
2022/05/06 21:31:41;;;;;;;27.62;18.57;;;;;;;;;;4327228;80;28476;-85
2022/05/06 21:37:42;;;;;;;29.50;18.87;;;;;;;;;;4339871;80;28516;-86
2022/05/06 21:43:43;;;;;;;30.97;19.80;;;;;;;;;;4339514;80;28514;-86
2022/05/06 21:49:45;;;;;;;29.65;18.35;;;;;;;;;;4338799;80;28443;-87
2022/05/06 21:55:46;;;;;;;27.45;17.45;;;;;;;;;;4335202;80;28534;-86
2022/05/06 22:01:48;;;;;;;35.60;20.70;;;;;;;;;;4374516;79;28641;-86
2022/05/06 22:07:51;;;;;;;35.05;21.35;;;;;;;;;;4340104;79;28530;-87
2022/05/06 22:13:52;;;;;;;30.08;20.32;;;;;;;;;;4318512;80;28525;-86
2022/05/06 22:19:53;;;;;;;32.67;20.52;;;;;;;;;;4299807;80;28484;-86
2022/05/06 22:25:53;;;;;;;29.05;17.80;;;;;;;;;;4343559;80;28563;-85
2022/05/06 22:31:54;;;;;;;29.95;19.40;;;;;;;;;;4331426;80;28631;-86
2022/05/06 22:37:55;;;;;;;29.55;19.42;;;;;;;;;;4340769;80;28530;-86
2022/05/06 22:50:17;;;;;;;29.95;20.05;;;;;;;;;;4329321;80;28495;-87
2022/05/06 22:56:18;;;;;;;29.55;20.25;;;;;;;;;;4299458;80;28561;-87
2022/05/06 23:02:19;;;;;;;37.50;23.98;;;;;;;;;;4336446;80;28590;-87
2022/05/06 23:08:20;;;;;;;41.88;24.98;;;;;;;;;;4331744;80;28519;-86
2022/05/06 23:14:21;;;;;;;42.53;25.20;;;;;;;;;;4361442;79;28531;-87
2022/05/06 23:20:22;;;;;;;36.35;22.98;;;;;;;;;;4296448;80;28553;-86
2022/05/06 23:26:23;;;;;;;36.68;22.95;;;;;;;;;;4317962;80;28519;-86
2022/05/06 23:32:24;;;;;;;45.73;26.65;;;;;;;;;;4290507;80;28519;-85
2022/05/06 23:38:25;;;;;;;35.95;20.62;;;;;;;;;;4341363;80;28492;-86
2022/05/06 23:44:26;;;;;;;36.40;23.80;;;;;;;;;;4323811;80;28513;-87
2022/05/06 23:50:27;;;;;;;38.60;23.85;;;;;;;;;;4341442;80;28513;-86
2022/05/06 23:56:28;;;;;;;36.00;22.13;;;;;;;;;;4328256;80;28506;-86
